Time;durP1;ratioP1;P1;durP2;ratioP2;P2;SDS_P1;SDS_P2;PMS_P1;PMS_P2;Temp;Humidity;BMP_temperature;BMP_pressure;BME280_temperature;BME280_humidity;BME280_pressure;Samples;Min_cycle;Max_cycle;Signal;HPM_P1;HPM_P2
2021/01/18 00:07:29;;;;;;;100.63;40.30;;;;;;;-18.86;71.77;100135.41;492337;1129;115866;-67
2021/01/18 00:17:35;;;;;;;78.43;29.13;;;;;;;-19.09;71.79;100147.37;492459;1129;115705;-68
2021/01/18 00:27:40;;;;;;;77.13;29.90;;;;;;;-19.15;71.97;100127.82;492439;1129;115414;-65
2021/01/18 00:37:46;;;;;;;84.57;31.63;;;;;;;-19.00;71.88;100127.89;493132;1128;114914;-64
2021/01/18 00:47:53;;;;;;;92.13;41.97;;;;;;;-18.72;71.86;100132.11;492393;1128;115857;-65
2021/01/18 00:57:57;;;;;;;105.50;39.40;;;;;;;-18.49;71.95;100127.65;492461;1129;115321;-68
2021/01/18 01:08:02;;;;;;;106.00;41.40;;;;;;;-18.36;71.64;100114.20;492619;1130;116029;-67
2021/01/18 01:18:06;;;;;;;120.63;42.43;;;;;;;-18.14;72.21;100103.84;493153;1129;115164;-66
2021/01/18 01:28:10;;;;;;;92.80;33.47;;;;;;;-18.14;71.66;100102.95;493396;1129;115962;-67
2021/01/18 01:38:14;;;;;;;91.27;36.37;;;;;;;-18.02;72.05;100100.33;493489;1128;115298;-65
2021/01/18 01:48:18;;;;;;;95.60;34.00;;;;;;;-17.96;72.05;100099.01;492319;1130;114850;-68
2021/01/18 01:58:24;;;;;;;106.13;45.20;;;;;;;-17.77;72.38;100077.51;492346;1129;114890;-66
2021/01/18 02:08:28;;;;;;;91.27;34.10;;;;;;;-17.76;72.72;100104.33;493017;1128;114992;-65
2021/01/18 02:18:49;;;;;;;91.05;38.65;;;;;;;-17.61;72.64;100092.65;492553;1128;114823;-65
2021/01/18 02:29:13;;;;;;;100.60;39.57;;;;;;;-17.58;72.81;100091.09;492281;1128;115643;-65
2021/01/18 02:39:25;;;;;;;111.10;43.20;;;;;;;-17.51;73.00;100111.59;493032;1129;114995;-66
2021/01/18 02:49:30;;;;;;;84.50;34.73;;;;;;;-17.42;72.71;100122.95;492330;1129;115100;-67
2021/01/18 02:59:35;;;;;;;81.10;30.60;;;;;;;-17.46;72.61;100111.86;492518;1128;115539;-66
2021/01/18 03:09:44;;;;;;;78.93;32.87;;;;;;;-17.39;72.83;100091.36;492241;1128;115880;-65
2021/01/18 03:19:48;;;;;;;88.05;34.95;;;;;;;-17.16;72.87;100089.27;493091;1129;115127;-66
2021/01/18 03:29:52;;;;;;;64.30;27.07;;;;;;;-17.25;73.31;100078.70;493271;1128;114822;-66
2021/01/18 03:39:56;;;;;;;52.63;24.03;;;;;;;-17.14;72.58;100081.80;493450;1128;115614;-66
2021/01/18 03:50:00;;;;;;;75.85;32.60;;;;;;;-17.11;73.24;100070.28;492683;1129;115310;-66
2021/01/18 04:00:07;;;;;;;82.50;31.60;;;;;;;-17.01;72.78;100050.69;492184;1128;115197;-65
2021/01/18 04:10:12;;;;;;;66.67;27.60;;;;;;;-17.10;72.91;100056.94;492338;1127;114715;-66
2021/01/18 04:20:17;;;;;;;67.33;23.93;;;;;;;-17.26;72.30;100045.18;492086;1128;115174;-66
2021/01/18 04:30:24;;;;;;;90.17;34.70;;;;;;;-17.43;71.95;100043.41;492274;1129;114833;-66
2021/01/18 04:40:31;;;;;;;60.30;23.20;;;;;;;-17.63;71.56;100045.66;492855;1128;115360;-65
2021/01/18 04:50:35;;;;;;;102.50;39.17;;;;;;;-17.56;72.25;100044.35;492867;1128;115017;-66
2021/01/18 05:00:44;;;;;;;68.67;20.23;;;;;;;-17.70;72.25;100053.63;492808;1129;115260;-66
2021/01/18 05:10:51;;;;;;;76.87;26.10;;;;;;;-17.80;72.39;100069.78;492796;1128;115170;-67
2021/01/18 05:20:56;;;;;;;71.77;24.00;;;;;;;-17.97;71.51;100089.75;492911;1129;115254;-67
2021/01/18 05:31:00;;;;;;;72.70;27.00;;;;;;;-18.22;71.98;100067.41;492882;1128;115467;-66
2021/01/18 05:41:08;;;;;;;86.30;31.93;;;;;;;-18.45;71.41;100081.94;493247;1129;115044;-67
2021/01/18 05:51:12;;;;;;;62.13;24.70;;;;;;;-18.66;71.89;100082.37;492683;1128;115011;-66
2021/01/18 06:01:37;;;;;;;63.67;22.53;;;;;;;-18.85;71.58;100062.84;492833;1128;114977;-66
2021/01/18 06:11:40;;;;;;;51.90;22.00;;;;;;;-19.02;72.28;100056.83;492956;1129;115344;-66
2021/01/18 06:21:44;;;;;;;46.17;16.23;;;;;;;-19.06;72.22;100084.97;492395;1129;115327;-67
2021/01/18 06:31:48;;;;;;;64.90;20.75;;;;;;;-19.12;72.18;100082.94;492741;1128;115031;-66
2021/01/18 06:41:58;;;;;;;48.40;18.00;;;;;;;-19.13;71.86;100088.72;492430;1128;115129;-66
2021/01/18 06:52:04;;;;;;;39.93;15.57;;;;;;;-19.13;72.02;100083.72;492773;1128;115530;-66
2021/01/18 07:02:22;;;;;;;49.35;19.40;;;;;;;-19.11;71.98;100084.67;493026;1128;115077;-64
2021/01/18 07:12:27;;;;;;;67.95;22.80;;;;;;;-18.92;71.98;100104.18;492340;1129;115979;-64
2021/01/18 07:22:46;;;;;;;57.17;22.60;;;;;;;-18.40;71.56;100118.19;492375;1129;115429;-66
2021/01/18 07:33:08;;;;;;;64.63;27.07;;;;;;;-17.90;71.76;100106.88;495195;1128;115103;-67
2021/01/18 07:43:33;;;;;;;74.73;32.67;;;;;;;-16.88;71.25;100107.47;492705;1129;115368;-66
2021/01/18 07:53:56;;;;;;;81.70;41.17;;;;;;;-15.08;70.30;100089.68;492751;1129;115487;-68
2021/01/18 08:04:18;;;;;;;103.37;46.57;;;;;;;-13.34;68.44;100077.75;492937;1128;115160;-67
2021/01/18 08:14:22;;;;;;;86.28;46.73;;;;;;;-11.97;66.70;100066.81;484405;1128;10001693;-67
2021/01/18 08:24:52;;;;;;;100.30;55.37;;;;;;;-10.29;66.05;100054.22;492028;1128;115968;-67
2021/01/18 08:34:58;;;;;;;87.40;48.37;;;;;;;-8.06;64.99;100061.94;491976;1128;115049;-68
2021/01/18 08:45:05;;;;;;;87.17;53.60;;;;;;;-6.66;63.32;100059.12;492060;1129;114831;-68
2021/01/18 08:55:33;;;;;;;;;;;;;;;-4.56;61.47;100044.03;492366;1129;114870;-69
2021/01/18 09:05:38;;;;;;;98.90;66.70;;;;;;;-3.54;59.73;100046.05;492065;1128;101079;-67
2021/01/18 09:15:44;;;;;;;122.07;76.13;;;;;;;-2.37;58.86;100043.30;503851;1129;115088;-70
2021/01/18 09:25:58;;;;;;;126.80;81.20;;;;;;;-1.97;57.78;100039.70;492513;1128;115044;-68
2021/01/18 09:36:04;;;;;;;131.15;85.95;;;;;;;-1.53;56.51;100032.59;493021;1129;114934;-65
2021/01/18 09:46:08;;;;;;;117.45;71.90;;;;;;;-2.76;56.62;100030.59;492879;1128;114652;-64
2021/01/18 09:56:16;;;;;;;98.35;58.75;;;;;;;-6.74;56.42;100033.48;492963;1129;115171;-66
2021/01/18 10:06:25;;;;;;;90.77;53.00;;;;;;;-8.64;57.42;100052.31;493388;1129;115257;-65
2021/01/18 10:16:29;;;;;;;93.50;48.60;;;;;;;-9.72;59.94;100066.75;493496;1130;116102;-66
2021/01/18 10:26:37;;;;;;;85.13;47.37;;;;;;;-10.18;60.47;100051.99;492923;1127;115029;-64
2021/01/18 10:36:41;;;;;;;73.73;40.83;;;;;;;-10.58;61.12;100028.91;492471;1128;114820;-65
2021/01/18 10:46:50;;;;;;;94.22;47.40;;;;;;;-11.09;61.70;100019.80;493117;1129;115810;-65
2021/01/18 10:56:56;;;;;;;80.13;42.27;;;;;;;-11.37;62.59;100028.21;492535;1129;115451;-67
2021/01/18 11:07:01;;;;;;;86.63;41.60;;;;;;;-11.38;63.30;100008.75;492385;1128;115445;-68
2021/01/18 11:17:07;;;;;;;71.83;38.73;;;;;;;-11.39;64.06;100000.27;493055;1128;114843;-66
2021/01/18 11:27:11;;;;;;;70.73;37.73;;;;;;;-11.21;64.62;99992.37;493222;1129;115224;-66
2021/01/18 11:37:15;;;;;;;67.87;34.33;;;;;;;-10.95;64.85;99982.17;493303;1129;115557;-67
2021/01/18 11:47:20;;;;;;;66.80;35.03;;;;;;;-11.02;65.21;99965.91;492643;1131;114768;-75
2021/01/18 11:57:24;;;;;;;52.73;29.20;;;;;;;-11.03;65.43;99950.64;493160;1129;114638;-66
2021/01/18 12:07:28;;;;;;;55.28;27.77;;;;;;;-11.09;65.71;99950.44;493000;1127;115177;-63
2021/01/18 12:17:37;;;;;;;57.10;27.95;;;;;;;-11.03;66.19;99927.80;492741;1129;115227;-71
2021/01/18 12:27:41;;;;;;;51.77;25.53;;;;;;;-10.94;66.31;99920.47;492463;1128;114670;-69
2021/01/18 12:37:46;;;;;;;71.40;31.83;;;;;;;-11.10;66.18;99911.55;492879;1128;114744;-67
2021/01/18 12:47:50;;;;;;;69.73;34.03;;;;;;;-11.31;66.66;99910.10;493095;1129;114751;-64
2021/01/18 12:57:54;;;;;;;73.93;33.77;;;;;;;-11.52;66.75;99909.45;492476;1128;115833;-69
2021/01/18 13:07:58;;;;;;;66.20;34.07;;;;;;;-11.81;67.49;99920.40;492673;1128;114770;-69
2021/01/18 13:18:03;;;;;;;65.97;32.45;;;;;;;-12.11;67.54;99921.19;492918;1128;114968;-69
2021/01/18 13:28:06;;;;;;;;;;;;;;;-12.37;67.21;99923.67;493655;1128;114682;-65
2021/01/18 13:38:10;;;;;;;91.30;41.00;;;;;;;-12.55;67.88;99917.19;492936;1128;100856;-67
2021/01/18 13:48:14;;;;;;;72.83;33.57;;;;;;;-12.68;68.33;99922.63;492435;1128;115166;-67
2021/01/18 13:58:18;;;;;;;75.03;36.57;;;;;;;-12.75;68.39;99923.22;492214;1128;115039;-68
2021/01/18 14:08:22;;;;;;;78.30;35.33;;;;;;;-12.80;69.02;99902.81;493207;1128;114851;-68
2021/01/18 14:18:26;;;;;;;64.40;34.30;;;;;;;-12.67;69.47;99917.61;493440;1127;114950;-67
2021/01/18 14:28:29;;;;;;;;;;;;;;;-12.65;69.14;99910.08;493526;1129;115209;-66
2021/01/18 14:38:33;;;;;;;70.33;34.57;;;;;;;-12.64;69.91;99915.98;493549;1129;101334;-56
2021/01/18 14:48:37;;;;;;;97.75;44.35;;;;;;;-12.79;69.64;99901.16;493203;1129;114975;-62
2021/01/18 14:58:42;;;;;;;82.07;41.33;;;;;;;-12.71;69.92;99899.73;492786;1128;114638;-62
2021/01/18 15:08:46;;;;;;;67.17;35.97;;;;;;;-12.73;70.83;99898.83;492643;1128;115103;-64
2021/01/18 15:18:50;;;;;;;74.97;37.90;;;;;;;-12.86;69.84;99895.87;492665;1128;114675;-62
2021/01/18 15:28:54;;;;;;;75.10;36.95;;;;;;;-12.98;70.80;99890.38;492926;1128;114608;-69
2021/01/18 15:38:58;;;;;;;70.55;35.45;;;;;;;-13.13;70.32;99895.73;493206;1128;114636;-70
2021/01/18 15:49:02;;;;;;;77.35;36.80;;;;;;;-13.31;71.76;99901.84;493075;1128;114707;-67
2021/01/18 15:59:06;;;;;;;95.40;48.10;;;;;;;-13.35;72.08;99897.46;493184;1128;114642;-65
2021/01/18 16:09:11;;;;;;;97.93;45.73;;;;;;;-13.19;72.20;99876.14;492799;1128;114725;-68
2021/01/18 16:19:15;;;;;;;84.57;41.40;;;;;;;-13.00;72.47;99876.83;493417;1129;114988;-72
2021/01/18 16:29:19;;;;;;;67.05;34.45;;;;;;;-12.90;71.44;99866.23;493210;1128;114702;-66
2021/01/18 16:39:23;;;;;;;81.50;38.90;;;;;;;-12.84;71.96;99863.06;492735;1129;114739;-68
2021/01/18 16:49:27;;;;;;;87.90;42.65;;;;;;;-12.96;72.01;99854.23;493285;1129;114625;-61
2021/01/18 16:59:31;;;;;;;89.10;42.37;;;;;;;-12.88;71.62;99859.55;493160;1128;114531;-64
2021/01/18 17:09:35;;;;;;;100.60;48.00;;;;;;;-12.90;71.55;99857.77;493834;1128;114653;-61
2021/01/18 17:19:40;;;;;;;96.63;48.33;;;;;;;-12.85;71.86;99853.75;492547;1128;115071;-64
2021/01/18 17:29:45;;;;;;;101.00;50.07;;;;;;;-12.81;72.25;99850.51;493038;1129;114676;-67
2021/01/18 17:39:50;;;;;;;108.30;51.55;;;;;;;-12.86;72.08;99837.70;493163;1128;115237;-64
2021/01/18 17:49:54;;;;;;;101.60;50.03;;;;;;;-12.79;72.72;99830.34;492796;1128;115173;-65
2021/01/18 17:59:58;;;;;;;98.45;46.80;;;;;;;-12.89;72.71;99835.08;492677;1128;115434;-63
2021/01/18 18:10:02;;;;;;;113.45;55.05;;;;;;;-12.80;72.75;99826.94;493269;1128;114670;-63
2021/01/18 18:20:08;;;;;;;106.73;49.73;;;;;;;-12.67;73.62;99818.95;493054;1130;114815;-64
2021/01/18 18:30:16;;;;;;;113.60;52.95;;;;;;;-12.56;72.96;99809.20;485096;1129;10001695;-64
2021/01/18 18:40:20;;;;;;;99.43;50.33;;;;;;;-12.48;73.67;99801.86;492342;1129;116262;-64
2021/01/18 18:50:24;;;;;;;101.73;46.73;;;;;;;-12.47;73.74;99797.64;492694;1129;114697;-64
2021/01/18 19:00:28;;;;;;;103.60;55.63;;;;;;;-12.45;73.26;99796.05;492208;1129;115312;-64
2021/01/18 19:10:33;;;;;;;114.53;52.20;;;;;;;-12.36;73.19;99791.25;493037;1128;114889;-64
2021/01/18 19:20:39;;;;;;;95.67;47.37;;;;;;;-12.31;73.04;99794.81;493193;1128;114983;-68
2021/01/18 19:30:43;;;;;;;110.73;51.97;;;;;;;-12.12;73.52;99787.77;492644;1128;114712;-66
2021/01/18 19:40:48;;;;;;;91.63;43.90;;;;;;;-11.96;73.67;99787.41;492345;1129;115709;-64
2021/01/18 19:50:53;;;;;;;100.50;51.47;;;;;;;-11.77;73.67;99776.96;492052;1129;114537;-64
2021/01/18 20:00:57;;;;;;;123.57;59.23;;;;;;;-11.68;73.79;99775.55;492277;1128;116561;-64
2021/01/18 20:11:03;;;;;;;108.77;56.37;;;;;;;-11.52;73.60;99770.06;492604;1129;114706;-64
2021/01/18 20:21:07;;;;;;;108.27;51.53;;;;;;;-11.47;73.90;99760.93;493370;1131;115414;-64
2021/01/18 20:31:11;;;;;;;101.07;49.37;;;;;;;-11.32;73.68;99763.88;492883;1129;116358;-65
2021/01/18 20:41:21;;;;;;;95.77;48.37;;;;;;;-11.21;73.47;99751.47;491934;1128;114826;-63
2021/01/18 20:51:25;;;;;;;105.65;55.05;;;;;;;-11.15;73.83;99743.17;492573;1128;114692;-65
2021/01/18 21:01:29;;;;;;;116.95;52.25;;;;;;;-11.02;73.64;99734.22;492361;1128;114916;-64
2021/01/18 21:11:32;;;;;;;;;;;;;;;-10.82;74.26;99726.27;492059;1128;114922;-64
2021/01/18 21:21:36;;;;;;;103.90;49.00;;;;;;;-10.72;73.97;99728.20;492179;1128;100568;-65
2021/01/18 21:31:41;;;;;;;112.80;53.58;;;;;;;-10.75;73.83;99711.22;491959;1129;115078;-65
2021/01/18 21:41:46;;;;;;;100.33;49.27;;;;;;;-10.70;74.19;99712.17;492822;1129;115733;-69
2021/01/18 21:51:51;;;;;;;111.92;51.40;;;;;;;-10.57;74.66;99705.72;492733;1129;115958;-67
2021/01/18 22:02:01;;;;;;;111.25;48.85;;;;;;;-10.42;74.23;99699.27;493031;1128;114929;-65
2021/01/18 22:12:06;;;;;;;116.53;52.37;;;;;;;-10.16;74.09;99689.67;493094;1127;115294;-72
2021/01/18 22:22:10;;;;;;;101.80;48.30;;;;;;;-10.19;74.72;99681.98;493634;1128;115438;-66
2021/01/18 22:32:14;;;;;;;95.72;50.60;;;;;;;-10.05;74.28;99671.26;493456;1129;115513;-65
2021/01/18 22:42:18;;;;;;;81.27;39.10;;;;;;;-10.08;74.45;99639.02;492876;1129;115343;-69
2021/01/18 22:52:24;;;;;;;120.10;59.00;;;;;;;-10.09;74.49;99623.77;492918;1128;115936;-73
2021/01/18 23:02:28;;;;;;;106.60;53.37;;;;;;;-10.01;75.70;99617.14;492725;1129;114895;-64
2021/01/18 23:12:32;;;;;;;100.50;49.53;;;;;;;-9.93;75.41;99592.74;492656;1128;114940;-59
2021/01/18 23:22:37;;;;;;;110.00;51.40;;;;;;;-9.83;75.67;99590.38;493243;1129;114747;-60
2021/01/18 23:32:41;;;;;;;94.43;46.37;;;;;;;-9.73;76.05;99572.77;493082;1129;115005;-60
2021/01/18 23:42:46;;;;;;;100.47;48.10;;;;;;;-9.65;75.71;99554.27;492832;1128;115419;-60
2021/01/18 23:52:51;;;;;;;84.20;43.87;;;;;;;-9.58;76.28;99553.53;492385;1129;115524;-59
